createdAt,value
2019-02-18T00:02:22.354Z,92.10
2019-02-18T00:04:50.811Z,92.00
2019-02-18T00:07:19.148Z,91.80
2019-02-18T00:09:47.544Z,91.80
2019-02-18T00:12:15.956Z,92.10
2019-02-18T00:14:44.354Z,91.90
2019-02-18T00:17:12.755Z,92.00
2019-02-18T00:19:41.141Z,92.10
2019-02-18T00:22:11.384Z,91.80
2019-02-18T00:24:39.885Z,92.10
2019-02-18T00:27:29.828Z,92.10
2019-02-18T00:29:58.206Z,92.10
2019-02-18T00:32:26.619Z,92.40
2019-02-18T00:34:55.026Z,92.00
2019-02-18T00:37:24.707Z,92.80
2019-02-18T00:39:53.239Z,92.40
2019-02-18T00:42:21.932Z,92.60
2019-02-18T00:44:50.330Z,92.40
2019-02-18T00:47:18.744Z,92.30
2019-02-18T00:49:47.164Z,92.10
2019-02-18T00:52:15.545Z,92.10
2019-02-18T00:54:43.927Z,92.40
2019-02-18T00:57:12.342Z,92.60
2019-02-18T00:59:40.755Z,92.90
2019-02-18T01:02:09.267Z,92.90
2019-02-18T01:04:37.642Z,92.80
2019-02-18T01:07:06.025Z,92.60
2019-02-18T01:09:34.443Z,92.70
2019-02-18T01:12:02.830Z,92.80
2019-02-18T01:14:31.503Z,92.90
2019-02-18T01:16:59.896Z,93.20
2019-02-18T01:19:28.291Z,92.70
2019-02-18T01:21:56.682Z,92.80
2019-02-18T01:24:25.185Z,92.60
2019-02-18T01:26:53.564Z,92.70
2019-02-18T01:29:22.008Z,92.50
2019-02-18T01:31:50.387Z,92.40
2019-02-18T01:34:18.790Z,92.40
2019-02-18T01:36:47.220Z,92.50
2019-02-18T01:39:15.603Z,92.30
2019-02-18T01:41:44.031Z,92.60
2019-02-18T01:44:12.432Z,92.70
2019-02-18T01:46:40.862Z,92.40
2019-02-18T01:49:09.242Z,92.40
2019-02-18T01:51:37.650Z,92.30
2019-02-18T01:54:06.032Z,92.50
2019-02-18T01:56:34.452Z,92.50
2019-02-18T01:59:02.857Z,92.60
2019-02-18T02:01:31.239Z,92.30
2019-02-18T02:03:59.699Z,92.50
2019-02-18T02:06:28.120Z,92.40
2019-02-18T02:08:56.546Z,92.00
2019-02-18T02:11:24.930Z,92.40
2019-02-18T02:13:53.325Z,92.30
2019-02-18T02:16:21.773Z,92.10
2019-02-18T02:18:50.166Z,92.10
2019-02-18T02:21:18.527Z,92.50
2019-02-18T02:23:46.928Z,92.50
2019-02-18T02:26:15.318Z,92.90
2019-02-18T02:28:43.728Z,92.80
2019-02-18T02:31:12.133Z,92.90
2019-02-18T02:33:40.555Z,92.50
2019-02-18T02:36:08.931Z,92.30
2019-02-18T02:38:37.346Z,92.80
2019-02-18T02:41:05.755Z,92.30
2019-02-18T02:43:34.177Z,92.40
2019-02-18T02:46:02.549Z,92.30
2019-02-18T02:48:30.959Z,92.30
2019-02-18T02:50:59.343Z,91.60
2019-02-18T02:53:27.758Z,92.00
2019-02-18T02:55:56.168Z,92.10
2019-02-18T02:58:24.541Z,91.90
2019-02-18T03:00:52.962Z,92.10
2019-02-18T03:03:21.399Z,92.60
2019-02-18T03:05:49.778Z,93.00
2019-02-18T03:08:20.644Z,93.00
2019-02-18T03:10:48.258Z,93.00
2019-02-18T03:13:16.619Z,92.80
2019-02-18T03:15:45.029Z,92.80
2019-02-18T03:18:13.395Z,93.10
2019-02-18T03:20:41.814Z,92.80
2019-02-18T03:23:10.192Z,92.80
2019-02-18T03:25:38.582Z,93.20
2019-02-18T03:28:19.313Z,93.10
2019-02-18T03:30:53.851Z,93.00
2019-02-18T03:33:31.580Z,92.90
2019-02-18T03:35:59.976Z,93.00
2019-02-18T03:38:31.440Z,92.90
2019-02-18T03:41:03.149Z,92.80
2019-02-18T03:43:28.494Z,92.90
2019-02-18T03:45:56.875Z,92.90
2019-02-18T03:48:25.247Z,92.90
2019-02-18T03:50:53.645Z,92.70
2019-02-18T03:53:22.017Z,92.70
2019-02-18T03:55:50.435Z,92.60
2019-02-18T03:58:18.836Z,92.50
2019-02-18T04:00:47.244Z,92.90
2019-02-18T04:03:15.643Z,92.60
2019-02-18T04:05:44.041Z,92.60
2019-02-18T04:08:12.463Z,92.70
2019-02-18T04:10:42.686Z,92.40
2019-02-18T04:13:11.099Z,92.60
2019-02-18T04:15:39.564Z,92.70
2019-02-18T04:18:07.947Z,92.40
2019-02-18T04:20:36.338Z,92.70
2019-02-18T04:23:04.752Z,92.20
2019-02-18T04:25:33.146Z,92.50
2019-02-18T04:28:01.567Z,92.20
2019-02-18T04:30:29.931Z,92.30
2019-02-18T04:32:58.339Z,92.50
2019-02-18T04:35:26.718Z,92.70
2019-02-18T04:37:55.166Z,92.40
2019-02-18T04:40:23.552Z,92.30
2019-02-18T04:42:51.955Z,92.10
2019-02-18T04:45:20.334Z,92.60
2019-02-18T04:47:48.741Z,92.80
2019-02-18T04:50:17.158Z,92.60
2019-02-18T04:52:45.540Z,92.70
2019-02-18T04:55:13.923Z,92.50
2019-02-18T04:57:42.347Z,92.70
2019-02-18T05:00:10.728Z,92.90
2019-02-18T05:02:39.119Z,92.90
2019-02-18T05:05:09.137Z,92.30
2019-02-18T05:07:37.553Z,92.30
2019-02-18T05:10:08.928Z,92.20
2019-02-18T05:12:37.342Z,92.40
2019-02-18T05:15:07.580Z,92.60
2019-02-18T05:17:36.007Z,93.00
2019-02-18T05:20:05.956Z,92.30
2019-02-18T05:22:34.336Z,92.30
2019-02-18T05:25:02.733Z,92.30
2019-02-18T05:27:33.520Z,92.60
2019-02-18T05:30:01.254Z,92.20
2019-02-18T05:32:29.686Z,92.40
2019-02-18T05:34:58.146Z,92.30
2019-02-18T05:37:26.595Z,92.60
2019-02-18T05:39:55.559Z,92.60
2019-02-18T05:42:24.020Z,92.90
2019-02-18T05:44:52.400Z,92.90
2019-02-18T05:47:20.814Z,92.60
2019-02-18T05:49:49.202Z,91.90
2019-02-18T05:52:17.582Z,92.20
2019-02-18T05:54:45.987Z,92.30
2019-02-18T05:57:14.388Z,92.10
2019-02-18T05:59:42.779Z,91.60
2019-02-18T06:02:11.192Z,92.00
2019-02-18T06:04:39.619Z,92.60
2019-02-18T06:07:08.022Z,92.90
2019-02-18T06:09:36.404Z,93.20
2019-02-18T06:12:04.835Z,93.00
2019-02-18T06:14:33.210Z,93.10
2019-02-18T06:17:02.862Z,93.20
2019-02-18T06:19:31.283Z,92.90
2019-02-18T06:21:59.703Z,93.00
2019-02-18T06:24:28.082Z,92.70
2019-02-18T06:26:56.500Z,92.20
2019-02-18T06:29:24.940Z,92.10
2019-02-18T06:31:53.334Z,92.40
2019-02-18T06:34:21.728Z,92.60
2019-02-18T06:36:50.148Z,93.10
2019-02-18T06:39:18.767Z,92.90
2019-02-18T06:41:47.149Z,93.10
2019-02-18T06:44:15.562Z,92.90
2019-02-18T06:46:45.607Z,93.00
2019-02-18T06:49:15.495Z,92.90
2019-02-18T06:51:43.916Z,93.30
2019-02-18T06:54:12.304Z,93.20
2019-02-18T06:56:42.381Z,92.90
2019-02-18T06:59:12.395Z,93.60
2019-02-18T07:01:42.431Z,92.70
2019-02-18T07:04:12.451Z,93.40
2019-02-18T07:06:42.519Z,93.00
2019-02-18T07:09:24.896Z,93.30
2019-02-18T07:11:54.983Z,92.80
2019-02-18T07:14:23.371Z,93.20
2019-02-18T07:16:51.799Z,93.20
2019-02-18T07:19:20.201Z,93.20
2019-02-18T07:21:48.612Z,93.50
2019-02-18T07:24:17.018Z,93.20
2019-02-18T07:26:45.392Z,93.10
2019-02-18T07:29:13.820Z,93.00
2019-02-18T07:31:42.197Z,92.70
2019-02-18T07:34:10.583Z,93.30
2019-02-18T07:36:39.014Z,92.90
2019-02-18T07:39:07.841Z,92.50
2019-02-18T07:41:36.246Z,93.10
2019-02-18T07:44:04.623Z,92.90
2019-02-18T07:46:33.026Z,92.60
2019-02-18T07:49:01.412Z,92.70
2019-02-18T07:51:29.898Z,92.90
2019-02-18T07:53:58.291Z,92.90
2019-02-18T07:56:26.747Z,92.90
2019-02-18T07:58:55.149Z,92.50
2019-02-18T08:01:23.556Z,92.60
2019-02-18T08:03:51.957Z,92.60
2019-02-18T08:06:20.336Z,92.70
2019-02-18T08:08:48.995Z,92.50
2019-02-18T08:11:19.016Z,92.80
2019-02-18T08:13:47.431Z,92.40
2019-02-18T08:16:15.821Z,92.10
2019-02-18T08:18:45.643Z,92.80
2019-02-18T08:21:14.116Z,92.30
2019-02-18T08:23:42.632Z,92.10
2019-02-18T08:26:14.727Z,91.90
2019-02-18T08:28:43.280Z,92.10
2019-02-18T08:31:11.704Z,92.40
2019-02-18T08:33:41.321Z,92.40
2019-02-18T08:36:09.868Z,92.30
2019-02-18T08:38:38.393Z,92.40
2019-02-18T08:41:09.953Z,92.40
2019-02-18T08:43:38.418Z,92.40
2019-02-18T08:46:06.873Z,92.50
2019-02-18T08:48:35.337Z,92.40
2019-02-18T08:51:03.746Z,91.50
2019-02-18T08:53:32.344Z,91.70
2019-02-18T08:56:01.059Z,92.30
2019-02-18T08:58:29.584Z,91.60
2019-02-18T09:01:02.600Z,91.80
2019-02-18T09:03:28.303Z,91.80
2019-02-18T09:05:59.534Z,91.70
2019-02-18T09:08:28.141Z,91.60
2019-02-18T09:10:58.425Z,91.70
2019-02-18T09:13:28.505Z,91.20
2019-02-18T09:16:00.036Z,91.20
2019-02-18T09:18:27.415Z,90.60
2019-02-18T09:20:55.811Z,90.50
2019-02-18T09:23:25.869Z,90.30
2019-02-18T09:25:54.323Z,90.00
2019-02-18T09:28:24.533Z,88.60
2019-02-18T09:30:53.895Z,88.50
2019-02-18T09:33:22.354Z,88.10
2019-02-18T09:35:50.827Z,87.70
2019-02-18T09:38:24.836Z,86.40
2019-02-18T09:40:51.734Z,86.50
2019-02-18T09:43:20.204Z,85.70
2019-02-18T09:45:48.850Z,84.90
2019-02-18T09:48:17.217Z,85.00
2019-02-18T09:50:45.595Z,85.30
2019-02-18T09:53:14.016Z,84.60
2019-02-18T09:55:42.496Z,83.40
2019-02-18T09:58:10.872Z,82.90
2019-02-18T10:00:39.286Z,82.40
2019-02-18T10:03:07.666Z,80.50
2019-02-18T10:05:36.070Z,80.30
2019-02-18T10:08:04.481Z,80.30
2019-02-18T10:10:32.882Z,79.40
2019-02-18T10:13:02.195Z,78.10
2019-02-18T10:15:30.579Z,77.10
2019-02-18T10:17:58.973Z,75.70
2019-02-18T10:20:27.403Z,74.20
2019-02-18T10:22:55.780Z,74.00
2019-02-18T10:25:24.222Z,74.00
2019-02-18T10:27:52.603Z,72.90
2019-02-18T10:30:20.986Z,72.70
2019-02-18T10:32:49.396Z,73.20
2019-02-18T10:35:17.806Z,71.50
2019-02-18T10:37:54.809Z,69.20
2019-02-18T10:40:16.271Z,70.80
2019-02-18T10:42:44.708Z,70.10
2019-02-18T10:45:13.578Z,69.80
2019-02-18T10:47:41.926Z,69.50
2019-02-18T10:50:11.451Z,69.00
2019-02-18T10:52:39.866Z,67.20
2019-02-18T10:55:09.919Z,67.00
2019-02-18T10:57:38.735Z,66.10
2019-02-18T11:00:10.486Z,66.20
2019-02-18T11:02:38.922Z,64.20
2019-02-18T11:05:08.024Z,64.60
2019-02-18T11:07:36.507Z,64.20
2019-02-18T11:10:11.105Z,65.20
2019-02-18T11:12:38.808Z,63.30
2019-02-18T11:15:09.567Z,64.50
2019-02-18T11:17:39.222Z,63.40
2019-02-18T11:20:10.175Z,60.60
2019-02-18T11:22:38.648Z,62.20
2019-02-18T11:25:09.691Z,59.50
2019-02-18T11:27:42.086Z,58.70
2019-02-18T11:30:15.844Z,59.20
2019-02-18T11:32:44.224Z,60.20
2019-02-18T11:35:12.605Z,59.40
2019-02-18T11:37:41.016Z,59.40
2019-02-18T11:40:12.635Z,56.00
2019-02-18T11:42:41.055Z,56.80
2019-02-18T11:45:14.539Z,57.40
2019-02-18T11:47:42.963Z,55.80
2019-02-18T11:50:17.340Z,54.10
2019-02-18T11:52:45.756Z,58.00
2019-02-18T11:55:14.548Z,58.20
2019-02-18T11:57:43.333Z,58.10
2019-02-18T12:00:13.378Z,59.80
2019-02-18T12:02:41.756Z,59.20
2019-02-18T12:05:11.060Z,56.50
2019-02-18T12:07:39.430Z,56.30
2019-02-18T12:10:12.426Z,55.00
2019-02-18T12:12:41.248Z,55.00
2019-02-18T12:15:16.027Z,54.90
2019-02-18T12:17:44.424Z,54.60
2019-02-18T12:20:16.557Z,54.40
2019-02-18T12:22:44.936Z,54.10
2019-02-18T12:25:13.574Z,56.50
2019-02-18T12:27:42.408Z,56.30
2019-02-18T12:30:17.469Z,57.60
2019-02-18T12:32:45.883Z,54.00
2019-02-18T12:35:14.355Z,54.40
2019-02-18T12:37:42.753Z,54.80
2019-02-18T12:40:14.639Z,52.10
2019-02-18T12:42:43.019Z,52.00
2019-02-18T12:45:14.264Z,54.20
2019-02-18T12:47:42.670Z,53.30
2019-02-18T12:50:13.841Z,54.90
2019-02-18T12:52:42.283Z,54.00
2019-02-18T12:55:12.873Z,53.70
2019-02-18T12:57:41.373Z,53.90
2019-02-18T13:00:13.381Z,52.10
2019-02-18T13:02:44.578Z,52.00
2019-02-18T13:05:12.789Z,51.40
2019-02-18T13:07:41.196Z,50.50
2019-02-18T13:10:10.087Z,51.10
2019-02-18T13:12:38.504Z,51.80
2019-02-18T13:15:13.191Z,51.20
2019-02-18T13:17:42.741Z,52.70
2019-02-18T13:20:10.942Z,53.40
2019-02-18T13:22:39.326Z,50.80
2019-02-18T13:25:08.693Z,50.30
2019-02-18T13:27:37.074Z,51.20
2019-02-18T13:30:10.937Z,49.40
2019-02-18T13:32:39.335Z,48.00
2019-02-18T13:35:07.742Z,49.20
2019-02-18T13:37:36.144Z,48.30
2019-02-18T13:40:05.676Z,49.10
2019-02-18T13:42:34.081Z,48.80
2019-02-18T13:45:02.883Z,48.90
2019-02-18T13:47:31.295Z,48.50
2019-02-18T13:49:59.672Z,49.20
2019-02-18T13:52:28.060Z,47.40
2019-02-18T13:54:56.515Z,48.80
2019-02-18T13:57:24.935Z,49.50
2019-02-18T13:59:53.324Z,49.90
2019-02-18T14:02:21.700Z,50.40
2019-02-18T14:04:50.121Z,50.40
2019-02-18T14:07:18.524Z,49.80
2019-02-18T14:09:46.973Z,50.70
2019-02-18T14:12:16.321Z,50.70
2019-02-18T14:14:44.961Z,51.00
2019-02-18T14:17:13.640Z,49.80
2019-02-18T14:19:42.210Z,50.70
2019-02-18T14:22:11.017Z,50.10
2019-02-18T14:24:39.390Z,49.70
2019-02-18T14:27:07.804Z,50.00
2019-02-18T14:29:36.187Z,50.80
2019-02-18T14:32:04.896Z,49.20
2019-02-18T14:34:33.281Z,47.10
2019-02-18T14:37:01.728Z,47.80
2019-02-18T14:39:30.122Z,48.50
2019-02-18T14:42:00.137Z,48.40
2019-02-18T14:44:28.579Z,46.40
2019-02-18T14:46:57.104Z,46.90
2019-02-18T14:49:25.545Z,47.90
2019-02-18T14:51:53.938Z,47.30
2019-02-18T14:54:22.658Z,48.50
2019-02-18T14:56:53.873Z,48.80
2019-02-18T14:59:22.271Z,49.10
2019-02-18T15:01:53.627Z,49.00
2019-02-18T15:04:22.049Z,50.60
2019-02-18T15:06:50.426Z,51.30
2019-02-18T15:09:18.933Z,50.90
2019-02-18T15:11:47.344Z,51.50
2019-02-18T15:14:15.759Z,51.80
2019-02-18T15:16:44.347Z,52.70
2019-02-18T15:19:12.923Z,53.60
2019-02-18T15:21:41.375Z,53.30
2019-02-18T15:24:09.773Z,53.90
2019-02-18T15:26:38.235Z,54.70
2019-02-18T15:29:06.601Z,54.30
2019-02-18T15:31:36.646Z,54.30
2019-02-18T15:34:05.410Z,55.10
2019-02-18T15:36:33.792Z,53.60
2019-02-18T15:39:02.209Z,53.60
2019-02-18T15:41:30.600Z,54.90
2019-02-18T15:43:59.018Z,54.00
2019-02-18T15:46:27.407Z,54.20
2019-02-18T15:48:55.814Z,55.40
2019-02-18T15:51:24.239Z,55.30
2019-02-18T15:53:52.621Z,56.60
2019-02-18T15:56:21.059Z,57.00
2019-02-18T15:58:49.464Z,57.60
2019-02-18T16:01:17.871Z,59.20
2019-02-18T16:03:46.251Z,58.80
2019-02-18T16:06:15.083Z,59.30
2019-02-18T16:08:43.493Z,60.10
2019-02-18T16:11:11.866Z,60.60
2019-02-18T16:13:40.268Z,61.50
2019-02-18T16:16:08.670Z,62.40
2019-02-18T16:18:37.077Z,63.40
2019-02-18T16:21:05.478Z,64.80
2019-02-18T16:23:33.879Z,65.10
2019-02-18T16:26:02.259Z,65.80
2019-02-18T16:28:30.691Z,66.20
2019-02-18T16:30:59.064Z,67.80
2019-02-18T16:33:27.441Z,67.80
2019-02-18T16:35:55.850Z,68.60
2019-02-18T16:38:24.259Z,69.20
2019-02-18T16:40:52.665Z,71.00
2019-02-18T16:43:21.464Z,71.40
2019-02-18T16:45:49.879Z,72.10
2019-02-18T16:48:18.617Z,72.80
2019-02-18T16:50:47.011Z,73.70
2019-02-18T16:53:15.698Z,74.30
2019-02-18T16:55:44.107Z,74.40
2019-02-18T16:58:12.536Z,74.80
2019-02-18T17:00:41.023Z,75.20
2019-02-18T17:03:09.441Z,75.90
2019-02-18T17:05:37.926Z,76.40
2019-02-18T17:08:06.336Z,77.10
2019-02-18T17:10:34.815Z,77.80
2019-02-18T17:13:08.228Z,77.40
2019-02-18T17:15:33.352Z,77.30
2019-02-18T17:18:01.730Z,77.80
2019-02-18T17:20:30.137Z,77.60
2019-02-18T17:22:58.523Z,78.90
2019-02-18T17:25:27.315Z,78.90
2019-02-18T17:27:55.704Z,79.40
2019-02-18T17:30:25.751Z,79.50
2019-02-18T17:32:54.152Z,79.70
2019-02-18T17:35:22.582Z,80.60
2019-02-18T17:37:50.976Z,81.20
2019-02-18T17:40:19.450Z,81.80
2019-02-18T17:42:47.852Z,81.50
2019-02-18T17:45:18.045Z,81.60
2019-02-18T17:47:46.460Z,82.00
2019-02-18T17:50:15.829Z,82.30
2019-02-18T17:52:44.224Z,82.40
2019-02-18T17:55:17.847Z,82.80
2019-02-18T17:57:48.279Z,82.50
2019-02-18T18:00:21.460Z,83.30
2019-02-18T18:02:49.806Z,83.10
2019-02-18T18:05:18.176Z,82.80
2019-02-18T18:07:46.585Z,83.30
2019-02-18T18:10:15.339Z,84.00
2019-02-18T18:12:43.740Z,84.70
2019-02-18T18:15:14.325Z,84.90
2019-02-18T18:17:43.224Z,84.60
2019-02-18T18:20:12.949Z,84.60
2019-02-18T18:22:41.377Z,85.10
2019-02-18T18:25:11.805Z,85.00
2019-02-18T18:27:40.212Z,84.90
2019-02-18T18:30:17.497Z,85.50
2019-02-18T18:32:45.885Z,85.40
2019-02-18T18:35:14.370Z,85.20
2019-02-18T18:37:42.744Z,85.50
2019-02-18T18:40:15.286Z,85.00
2019-02-18T18:42:43.666Z,85.10
2019-02-18T18:45:15.706Z,85.60
2019-02-18T18:47:44.211Z,85.90
2019-02-18T18:50:15.465Z,85.90
2019-02-18T18:52:45.828Z,86.60
2019-02-18T18:55:15.847Z,86.50
2019-02-18T18:57:44.294Z,86.70
2019-02-18T19:00:20.062Z,86.30
2019-02-18T19:02:48.459Z,86.50
2019-02-18T19:05:16.836Z,86.60
2019-02-18T19:07:45.314Z,87.10
2019-02-18T19:10:13.673Z,87.10
2019-02-18T19:12:42.124Z,87.30
2019-02-18T19:15:14.891Z,87.20
2019-02-18T19:17:43.383Z,86.90
2019-02-18T19:20:12.162Z,87.00
2019-02-18T19:22:40.621Z,87.40
2019-02-18T19:25:10.144Z,87.50
2019-02-18T19:27:39.614Z,88.40
2019-02-18T19:30:23.221Z,88.00
2019-02-18T19:32:51.625Z,88.10
2019-02-18T19:35:20.042Z,87.50
2019-02-18T19:37:48.527Z,87.30
2019-02-18T19:40:17.040Z,87.50
2019-02-18T19:42:45.421Z,87.40
2019-02-18T19:45:17.179Z,87.70
2019-02-18T19:47:45.657Z,88.70
2019-02-18T19:50:14.063Z,88.70
2019-02-18T19:52:42.482Z,89.00
2019-02-18T19:55:11.922Z,88.30
2019-02-18T19:57:40.347Z,89.00
2019-02-18T20:00:13.070Z,88.40
2019-02-18T20:02:41.448Z,88.90
2019-02-18T20:05:10.582Z,88.30
2019-02-18T20:07:38.946Z,88.70
2019-02-18T20:10:09.895Z,89.40
2019-02-18T20:12:38.459Z,89.00
2019-02-18T20:15:10.100Z,89.60
2019-02-18T20:17:38.514Z,89.60
2019-02-18T20:20:12.210Z,89.40
2019-02-18T20:22:40.732Z,89.00
2019-02-18T20:25:09.775Z,89.20
2019-02-18T20:27:38.176Z,89.20
2019-02-18T20:30:13.173Z,89.50
2019-02-18T20:32:41.584Z,90.00
2019-02-18T20:35:10.923Z,90.10
2019-02-18T20:37:39.353Z,89.70
2019-02-18T20:40:08.885Z,89.10
2019-02-18T20:42:37.707Z,89.40
2019-02-18T20:45:13.326Z,90.00
2019-02-18T20:47:41.683Z,89.80
2019-02-18T20:50:14.681Z,89.50
2019-02-18T20:52:43.052Z,90.00
2019-02-18T20:55:14.040Z,89.80
2019-02-18T20:57:42.465Z,89.80
2019-02-18T21:00:20.306Z,90.30
2019-02-18T21:02:48.722Z,90.00
2019-02-18T21:05:17.098Z,90.50
2019-02-18T21:07:45.532Z,90.20
2019-02-18T21:10:17.020Z,90.30
2019-02-18T21:12:45.434Z,90.30
2019-02-18T21:15:13.846Z,90.30
2019-02-18T21:17:42.327Z,90.60
2019-02-18T21:20:12.078Z,90.50
2019-02-18T21:22:40.469Z,90.50
2019-02-18T21:25:10.327Z,90.60
2019-02-18T21:27:38.710Z,90.60
2019-02-18T21:30:15.151Z,90.80
2019-02-18T21:32:43.534Z,90.20
2019-02-18T21:35:11.959Z,90.40
2019-02-18T21:37:40.767Z,90.50
2019-02-18T21:40:12.505Z,90.30
2019-02-18T21:42:40.888Z,90.50
2019-02-18T21:45:11.874Z,90.60
2019-02-18T21:47:40.301Z,90.50
2019-02-18T21:50:09.837Z,90.50
2019-02-18T21:52:38.563Z,90.60
2019-02-18T21:55:09.145Z,90.80
2019-02-18T21:57:37.523Z,90.50
2019-02-18T22:00:10.864Z,90.70
2019-02-18T22:02:39.330Z,90.70
2019-02-18T22:05:07.725Z,91.10
2019-02-18T22:07:36.444Z,90.70
2019-02-18T22:10:07.413Z,90.70
2019-02-18T22:12:35.793Z,90.70
2019-02-18T22:15:04.953Z,90.90
2019-02-18T22:17:33.358Z,91.00
2019-02-18T22:20:01.795Z,90.70
2019-02-18T22:22:30.577Z,90.70
2019-02-18T22:24:58.979Z,90.90
2019-02-18T22:27:27.382Z,91.00
2019-02-18T22:29:55.858Z,90.80
2019-02-18T22:32:24.243Z,90.70
2019-02-18T22:34:52.662Z,90.70
2019-02-18T22:37:21.050Z,91.20
2019-02-18T22:39:50.834Z,90.70
2019-02-18T22:42:19.231Z,90.60
2019-02-18T22:44:47.596Z,90.80
2019-02-18T22:47:15.991Z,91.00
2019-02-18T22:49:44.403Z,91.00
2019-02-18T22:52:12.815Z,90.90
2019-02-18T22:54:41.198Z,91.50
2019-02-18T22:57:09.913Z,91.20
2019-02-18T22:59:38.319Z,91.10
2019-02-18T23:02:06.727Z,91.00
2019-02-18T23:04:35.113Z,91.10
2019-02-18T23:07:03.531Z,91.10
2019-02-18T23:09:31.906Z,90.80
2019-02-18T23:12:00.336Z,90.80
2019-02-18T23:14:29.127Z,91.10
2019-02-18T23:16:57.507Z,91.00
2019-02-18T23:19:25.908Z,91.30
2019-02-18T23:21:54.360Z,90.70
2019-02-18T23:24:22.783Z,91.30
2019-02-18T23:26:51.175Z,90.90
2019-02-18T23:29:19.603Z,90.70
2019-02-18T23:31:48.189Z,90.80
2019-02-18T23:34:16.587Z,90.10
2019-02-18T23:36:44.971Z,90.40
2019-02-18T23:39:13.416Z,90.20
2019-02-18T23:41:41.795Z,90.70
2019-02-18T23:44:10.175Z,90.70
2019-02-18T23:46:38.597Z,90.50
2019-02-18T23:49:07.010Z,90.80
2019-02-18T23:51:35.419Z,90.90
2019-02-18T23:54:03.839Z,90.90
2019-02-18T23:56:32.220Z,90.80
2019-02-18T23:59:00.624Z,90.90
